Flight Track Log - Related Links

Times and Time Zones

All times are in EDT time to prevent confusion due to time zone crossing. See the UAL4528 flight status page for this flight to view local times or setup timezone preferences in your user account.

Time Position Orientation Groundspeed Altitude Reporting Facility
EDT Latitude Longitude Course Direction KTS MPH feet Rate Location/Type
Fri 01:55:18 PM 35.8664 -78.8139 270° West 160 184 1,100  Level Washington Center
Fri 01:55:48 PM 35.8494 -78.8311 219° Southwest 169 194 2,100 2,143 Climbing Washington Center
Fri 01:56:42 PM 35.8086 -78.8731 220° Southwest 210 242 4,100 2,389 Climbing Washington Center
Fri 01:57:36 PM 35.7942 -78.9364 254° West 238 274 6,400 2,474 Climbing Washington Center
Fri 01:58:00 PM 35.8387 -79.2299 263° West  Level FlightAware Approximate
Fri 01:58:36 PM 35.8025 -79.0186 277° West 238 274 8,800  Level Washington Center
Fri 01:59:00 PM 35.8288 -79.3415 262° West  Level FlightAware Approximate
Fri 01:59:36 PM 35.8144 -79.1036 280° West 243 280 10,600  Level Washington Center
Fri 02:00:00 PM 35.8167 -79.4528 270° West  Level FlightAware Approximate
Fri 02:00:36 PM 35.8242 -79.1964 277° West 284 327 11,100  Level Washington Center
Fri 02:01:36 PM 35.8353 -79.3172 277° West 328 377 13,200 1,950 Climbing Washington Center
Fri 02:02:36 PM 35.8281 -79.4144 265° West 328 377 15,000 1,410 Climbing Washington Center
Fri 02:04:39 PM 35.8000 -79.6375 261° West 334 384 17,500 1,213 Climbing Atlanta Center
Fri 02:05:39 PM 35.7811 -79.7511 258° West 334 384 18,700 1,100 Climbing Atlanta Center
Fri 02:06:39 PM 35.7622 -79.8675 259° West 344 396 19,700 1,000 Climbing Atlanta Center
Fri 02:07:39 PM 35.7472 -79.9858 261° West 349 402 20,700 1,100 Climbing Atlanta Center
Fri 02:08:39 PM 35.7286 -80.1172 260° West 360 414 21,900 1,100 Climbing Atlanta Center
Fri 02:09:39 PM 35.7136 -80.2406 262° West 360 414 22,900 1,000 Climbing Atlanta Center
Fri 02:10:39 PM 35.6986 -80.3642 262° West 360 414 23,900 950 Climbing Atlanta Center
Fri 02:11:39 PM 35.6836 -80.4850 261° West 360 414 24,800 600 Climbing Atlanta Center
Fri 02:12:39 PM 35.6661 -80.6108 260° West 372 428 25,100 250 Climbing Atlanta Center
Fri 02:13:39 PM 35.6506 -80.7242 260° West 372 428 25,300 300 Climbing Atlanta Center
Fri 02:14:39 PM 35.6331 -80.8550 261° West 377 434 25,700 450 Climbing Atlanta Center
Fri 02:15:39 PM 35.6156 -80.9808 260° West 377 434 26,200 500 Climbing Atlanta Center
Fri 02:16:39 PM 35.5978 -81.1094 260° West 377 434 26,700 550 Climbing Atlanta Center
Fri 02:17:39 PM 35.5758 -81.2481 259° West 377 434 27,300 550 Climbing Atlanta Center
Fri 02:18:39 PM 35.5583 -81.3889 261° West 398 458 27,800 500 Climbing Atlanta Center
Fri 02:19:39 PM 35.5419 -81.5119 261° West 392 451 28,300 500 Climbing Atlanta Center
Fri 02:20:39 PM 35.5236 -81.6350 260° West 377 434 28,800 500 Climbing Atlanta Center
Fri 02:21:39 PM 35.5069 -81.7478 260° West 377 434 29,300 500 Climbing Atlanta Center
Fri 02:22:39 PM 35.4906 -81.8706 261° West 371 427 29,800 500 Climbing Atlanta Center
Fri 02:23:39 PM 35.4717 -81.9961 260° West 371 427 30,300 500 Climbing Atlanta Center
Fri 02:24:39 PM 35.4528 -82.1164 259° West 371 427 30,800 550 Climbing Atlanta Center
Fri 02:25:39 PM 35.4361 -82.2442 261° West 376 433 31,400 550 Climbing Atlanta Center
Fri 02:26:39 PM 35.4147 -82.3669 258° West 376 433 31,900 500 Climbing Atlanta Center
Fri 02:27:39 PM 35.3958 -82.5050 261° West 376 433 32,400 500 Climbing Atlanta Center
Fri 02:28:39 PM 35.3783 -82.6175 259° West 371 427 32,900 1,050 Climbing Atlanta Center
Fri 02:29:39 PM 35.3586 -82.7350 258° West 371 427 34,500 1,550 Climbing Atlanta Center
Fri 02:30:39 PM 35.3411 -82.8472 259° West 359 413 36,000 750 Climbing Atlanta Center
Fri 02:31:39 PM 35.3214 -82.9672 259° West 334 384 36,000  Level Atlanta Center
Fri 02:32:39 PM 35.3036 -83.0819 259° West 344 396 36,000  Level Atlanta Center
Fri 02:33:39 PM 35.2836 -83.2017 258° West 356 410 36,000  Level Atlanta Center
Fri 02:34:39 PM 35.2633 -83.3114 257° West 356 410 36,000  Level Atlanta Center
Fri 02:35:39 PM 35.2203 -83.4211 244° Southwest 356 410 36,000  Level Atlanta Center
Fri 02:36:39 PM 35.1728 -83.5433 245° Southwest 363 418 36,000  Level Atlanta Center
Fri 02:37:39 PM 35.1356 -83.6425 245° Southwest 363 418 36,000  Level Atlanta Center
Fri 02:38:39 PM 35.0900 -83.7544 244° Southwest 363 418 36,000  Level Atlanta Center
Fri 02:39:39 PM 35.0464 -83.8689 245° Southwest 363 418 36,000  Level Atlanta Center
Fri 02:40:39 PM 35.0047 -83.9778 245° Southwest 363 418 36,000  Level Atlanta Center
Fri 02:41:39 PM 34.9631 -84.0894 246° West 363 418 36,000  Level Atlanta Center
Fri 02:42:39 PM 34.9192 -84.1983 244° Southwest 363 418 36,000  Level Atlanta Center
Fri 02:43:39 PM 34.8731 -84.3172 245° Southwest 358 412 36,000  Level Atlanta Center
Fri 02:44:39 PM 34.8331 -84.4258 246° West 365 420 36,000  Level Atlanta Center
Fri 02:45:39 PM 34.7992 -84.5142 245° Southwest 365 420 36,000  Level Atlanta Center
Fri 02:46:39 PM 34.7486 -84.6353 243° Southwest 365 420 36,000  Level Atlanta Center
Fri 02:47:39 PM 34.7042 -84.7436 244° Southwest 360 414 36,000  Level Atlanta Center
Fri 02:48:39 PM 34.6556 -84.8669 244° Southwest 360 414 36,000  Level Atlanta Center
Fri 02:49:39 PM 34.6150 -84.9725 245° Southwest 360 414 36,000  Level Atlanta Center
Fri 02:50:39 PM 34.5747 -85.0806 246° West 366 421 36,000  Level Atlanta Center
Fri 02:51:39 PM 34.5319 -85.1783 242° Southwest 360 414 36,000  Level Atlanta Center
Fri 02:52:39 PM 34.4872 -85.2889 244° Southwest 360 414 36,000  Level Atlanta Center
Fri 02:53:39 PM 34.4442 -85.3964 244° Southwest 360 414 36,000  Level Atlanta Center
Fri 02:54:39 PM 34.4014 -85.5039 244° Southwest 360 414 36,000  Level Atlanta Center
Fri 02:55:39 PM 34.3625 -85.6092 246° West 360 414 36,000  Level Atlanta Center
Fri 02:56:39 PM 34.3172 -85.7139 242° Southwest 355 409 36,000  Level Atlanta Center
Fri 02:57:39 PM 34.2697 -85.8286 243° Southwest 355 409 36,000  Level Atlanta Center
Fri 02:58:39 PM 34.2286 -85.9181 241° Southwest 350 403 36,000  Level Atlanta Center
Fri 02:59:39 PM 34.1853 -86.0225 243° Southwest 345 397 36,000  Level Atlanta Center
Fri 03:00:39 PM 34.1417 -86.1294 244° Southwest 345 397 36,000  Level Atlanta Center
Fri 03:01:39 PM 34.0981 -86.2364 244° Southwest 345 397 36,000  Level Atlanta Center
Fri 03:02:39 PM 34.0544 -86.3431 244° Southwest 350 403 36,000  Level Atlanta Center
Fri 03:03:39 PM 34.0108 -86.4472 243° Southwest 350 403 36,000  Level Atlanta Center
Fri 03:04:39 PM 33.9669 -86.5536 244° Southwest 355 409 36,000  Level Atlanta Center
Fri 03:05:39 PM 33.9189 -86.6597 241° Southwest 361 415 36,000  Level Atlanta Center
Fri 03:06:39 PM 33.8767 -86.7661 244° Southwest 361 415 36,000  Level Atlanta Center
Fri 03:07:39 PM 33.8306 -86.8772 243° Southwest 361 415 36,000  Level Atlanta Center
Fri 03:08:39 PM 33.7861 -86.9831 243° Southwest 361 415 36,000  Level Atlanta Center
Fri 03:09:39 PM 33.7378 -87.0889 241° Southwest 361 415 36,000  Level Atlanta Center
Fri 03:10:39 PM 33.6911 -87.1994 243° Southwest 361 415 36,000  Level Atlanta Center
Fri 03:11:39 PM 33.6444 -87.3103 243° Southwest 361 415 36,000  Level Atlanta Center
Fri 03:12:56 PM 33.5794 -87.4625 243° Southwest 389 448 36,000  Level Memphis Center
Fri 03:13:56 PM 33.5319 -87.5711 242° Southwest 384 442 36,000  Level Memphis Center
Fri 03:14:56 PM 33.4864 -87.6797 243° Southwest 374 430 36,000  Level Memphis Center
Fri 03:15:56 PM 33.4386 -87.7883 242° Southwest 374 430 36,000  Level Memphis Center
Fri 03:16:56 PM 33.3928 -87.8964 243° Southwest 374 430 36,000  Level Memphis Center
Fri 03:17:56 PM 33.3447 -88.0072 243° Southwest 374 430 36,000  Level Memphis Center
Fri 03:18:56 PM 33.2986 -88.1128 242° Southwest 374 430 36,000  Level Memphis Center
Fri 03:19:56 PM 33.2608 -88.2108 245° Southwest 368 423 36,000  Level Memphis Center
Fri 03:20:56 PM 33.2125 -88.3186 242° Southwest 368 423 36,000  Level Memphis Center
Fri 03:21:56 PM 33.1661 -88.4264 243° Southwest 363 418 36,000  Level Memphis Center
Fri 03:22:56 PM 33.1156 -88.5342 241° Southwest 368 423 36,000  Level Memphis Center
Fri 03:23:56 PM 33.0672 -88.6419 242° Southwest 374 430 36,000  Level Memphis Center
Fri 03:24:56 PM 33.0206 -88.7492 243° Southwest 374 430 36,000  Level Memphis Center
Fri 03:25:56 PM 32.9739 -88.8567 243° Southwest 374 430 36,000  Level Memphis Center
Fri 03:26:56 PM 32.9250 -88.9614 241° Southwest 374 430 36,000  Level Memphis Center
Fri 03:27:56 PM 32.8739 -89.0736 242° Southwest 374 430 36,000  Level Memphis Center
Fri 03:28:56 PM 32.8269 -89.1831 243° Southwest 374 430 36,000  Level Memphis Center
Fri 03:29:56 PM 32.7781 -89.2900 241° Southwest 374 430 36,000  Level Memphis Center
Fri 03:30:56 PM 32.7267 -89.3967 240° Southwest 374 430 36,000  Level Memphis Center
Fri 03:31:56 PM 32.6794 -89.5058 243° Southwest 374 430 36,000  Level Memphis Center
Fri 03:32:56 PM 32.6281 -89.6147 241° Southwest 374 430 36,000  Level Memphis Center
Fri 03:33:56 PM 32.5764 -89.7236 241° Southwest 374 430 36,000  Level Memphis Center
Fri 03:34:56 PM 32.5289 -89.8325 243° Southwest 374 430 36,000  Level Memphis Center
Fri 03:35:56 PM 32.4769 -89.9411 240° Southwest 374 430 36,000  Level Memphis Center
Fri 03:36:56 PM 32.4294 -90.0472 242° Southwest 374 430 36,000  Level Memphis Center
Fri 03:37:56 PM 32.3775 -90.1556 240° Southwest 374 430 36,000  Level Memphis Center
Fri 03:38:56 PM 32.3294 -90.2639 242° Southwest 374 430 36,000  Level Memphis Center
Fri 03:39:56 PM 32.2794 -90.3694 241° Southwest 374 430 36,000  Level Memphis Center
Fri 03:40:56 PM 32.2292 -90.4778 241° Southwest 374 430 36,000  Level Memphis Center
Fri 03:41:56 PM 32.1769 -90.5856 240° Southwest 374 430 36,000  Level Memphis Center
Fri 03:42:56 PM 32.1267 -90.6933 241° Southwest 374 430 36,000  Level Memphis Center
Fri 03:43:17 PM 32.1083 -90.7353 243° Southwest 377 434 36,000  Level Houston Center
Fri 03:44:20 PM 32.0553 -90.8464 241° Southwest 376 433 36,000  Level Houston Center
Fri 03:45:22 PM 32.0053 -90.9542 241° Southwest 376 433 36,000  Level Houston Center
Fri 03:46:24 PM 31.9536 -91.0639 241° Southwest 383 441 36,000  Level Houston Center
Fri 03:47:26 PM 31.9017 -91.1714 240° Southwest 380 437 36,000  Level Houston Center
Fri 03:48:28 PM 31.8403 -91.3003 241° Southwest 378 435 36,000  Level Houston Center
Fri 03:49:30 PM 31.7881 -91.4083 240° Southwest 380 437 36,000  Level Houston Center
Fri 03:50:32 PM 31.7367 -91.5153 241° Southwest 377 434 36,000  Level Houston Center
Fri 03:51:35 PM 31.6858 -91.6231 241° Southwest 378 435 36,000  Level Houston Center
Fri 03:52:37 PM 31.6333 -91.7294 240° Southwest 378 435 36,000  Level Houston Center
Fri 03:53:39 PM 31.5828 -91.8364 241° Southwest 376 433 36,000  Level Houston Center
Fri 03:54:41 PM 31.5192 -91.9656 240° Southwest 382 440 36,000  Level Houston Center
Fri 03:55:44 PM 31.4708 -92.0619 240° Southwest 380 437 36,000  Level Houston Center
Fri 03:56:45 PM 31.4194 -92.1692 241° Southwest 379 436 36,000  Level Houston Center
Fri 03:57:47 PM 31.3569 -92.2964 240° Southwest 376 433 36,000  Level Houston Center
Fri 03:58:49 PM 31.3042 -92.4031 240° Southwest 379 436 36,000  Level Houston Center
Fri 03:59:52 PM 31.2503 -92.5114 240° Southwest 384 442 36,000 -144 Level Houston Center
Fri 04:00:54 PM 31.1931 -92.6147 237° Southwest 381 438 35,700 -387 Descending Houston Center
Fri 04:01:56 PM 31.1367 -92.7150 237° Southwest 370 426 35,200 -774 Descending Houston Center
Fri 04:02:58 PM 31.0675 -92.8372 237° Southwest 376 433 34,100 -1,065 Descending Houston Center
Fri 04:04:00 PM 31.0094 -92.9417 237° Southwest 383 441 33,000 -1,016 Descending Houston Center
Fri 04:05:02 PM 30.9506 -93.0461 237° Southwest 386 444 32,000 -1,016 Descending Houston Center
Fri 04:06:04 PM 30.8908 -93.1517 237° Southwest 389 448 30,900 -1,008 Descending Houston Center
Fri 04:07:07 PM 30.8314 -93.2589 237° Southwest 395 455 29,900 -1,008 Descending Houston Center
Fri 04:08:09 PM 30.7706 -93.3669 237° Southwest 399 459 28,800 -1,113 Descending Houston Center
Fri 04:09:11 PM 30.6964 -93.4961 236° Southwest 402 463 27,600 -1,113 Descending Houston Center
Fri 04:10:13 PM 30.6358 -93.6053 237° Southwest 407 468 26,500 -1,016 Descending Houston Center
Fri 04:11:15 PM 30.5719 -93.7150 236° Southwest 407 468 25,500 -1,016 Descending Houston Center
Fri 04:12:17 PM 30.5117 -93.8203 236° Southwest 408 470 24,400 -774 Descending Houston Center
Fri 04:13:19 PM 30.4383 -93.9486 236° Southwest 403 464 23,900 -1,063 Descending Houston Center
Fri 04:13:53 PM 30.4025 -94.0103 236° Southwest 385 443 22,700 -2,516 Descending Houston Center
Fri 04:14:21 PM 30.3806 -94.0481 236° Southwest 378 435 21,300 -3,738 Descending Houston Center
Fri 04:14:54 PM 30.3469 -94.1050 236° Southwest 368 423 18,900 -3,563 Descending Houston Center
Fri 04:15:25 PM 30.3233 -94.1472 237° Southwest 372 428 17,500 -3,214 Descending Houston Center
Fri 04:15:50 PM 30.2914 -94.2022 236° Southwest 371 427 15,900 -2,951 Descending Houston Center
Fri 04:16:26 PM 30.2664 -94.2456 236° Southwest 370 426 14,500 -3,049 Descending Houston Center
Fri 04:16:51 PM 30.2342 -94.3017 236° Southwest 358 412 12,800 -2,419 Descending Houston Center
Fri 04:17:28 PM 30.2119 -94.3403 236° Southwest 357 411 12,000 -806 Descending Houston Center
Fri 04:17:58 PM 30.1900 -94.4092 250° West 309 356 11,900 -484 Descending Houston Center
Fri 04:18:30 PM 30.1822 -94.4558 259° West 315 362 11,500 -750 Descending Houston Center
Fri 04:18:54 PM 30.1753 -94.4933 258° West 308 354 11,200 -871 Descending Houston Center
Fri 04:19:32 PM 30.1675 -94.5475 261° West 307 353 10,600 -1,180 Descending Houston Center
Fri 04:19:55 PM 30.1575 -94.5922 256° West 290 334 10,000 -1,161 Descending Houston Center
Fri 04:20:34 PM 30.1511 -94.6361 260° West 289 333 9,400 -1,258 Descending Houston Center
Fri 04:20:57 PM 30.1433 -94.6836 259° West 283 326 8,700 -1,355 Descending Houston Center
Fri 04:21:36 PM 30.1364 -94.7256 259° West 285 328 8,000 -1,377 Descending Houston Center
Fri 04:21:58 PM 30.1267 -94.7728 257° West 285 328 7,300 -1,548 Descending Houston Center
Fri 04:22:38 PM 30.1175 -94.8325 260° West 284 327 6,400 -1,258 Descending Houston Center
Fri 04:23:00 PM 30.1119 -94.8617 258° West 284 327 6,000 -387 Descending Houston Center
Fri 04:23:40 PM 30.1058 -94.9197 263° West 277 319 6,000  Level Houston Center
Fri 04:24:01 PM 30.1061 -94.9542 271° West 266 306 6,000  Level Houston Center
Fri 04:24:43 PM 30.1058 -95.0044 270° West 266 306 6,000  Level Houston Center
Fri 04:25:02 PM 30.1058 -95.0411 270° West 272 313 6,000 97 Level Houston Center
Fri 04:25:45 PM 30.1072 -95.0928 272° West 275 316 6,100  Climbing Houston Center
Fri 04:26:04 PM 30.1058 -95.1306 268° West 280 322 6,000 -97 Descending Houston Center
Fri 04:26:47 PM 30.1078 -95.1806 273° West 275 316 6,000  Level Houston Center
Fri 04:27:05 PM 30.1056 -95.2175 266° West 254 292 6,000  Level Houston Center
Fri 04:27:49 PM 30.1069 -95.2736 272° West 251 289 6,000  Level Houston Center
Fri 04:28:07 PM 30.1067 -95.2969 269° West 245 282 6,000  Level Houston Center
Fri 04:28:51 PM 30.1078 -95.3494 271° West 241 277 6,000  Level Houston Center
Fri 04:29:08 PM 30.1072 -95.3742 269° West 230 265 6,000 -484 Level Houston Center
Fri 04:29:53 PM 30.1078 -95.4206 271° West 229 264 5,500 -1,452 Descending Houston Center
Fri 04:30:10 PM 30.1075 -95.4442 269° West 210 242 4,500 -2,129 Descending Houston Center
Fri 04:30:55 PM 30.1044 -95.4894 266° West 221 254 3,300 -1,701 Descending Houston Center
Fri 04:31:17 PM 30.0750 -95.5036 203° Southwest 214 246 2,600 -1,161 Descending Houston Center
Fri 04:31:57 PM 30.0486 -95.4911 158° South 218 251 2,100 -590 Descending Houston Center
Fri 04:32:18 PM 30.0222 -95.4761 154° Southeast 201 231 2,000 -387 Descending Houston Center
Fri 04:32:59 PM 30.0014 -95.4542 138° Southeast 211 243 1,700 -581 Descending Houston Center
Fri 04:33:20 PM 29.9925 -95.4292 112° Southeast 141 162 1,400 -762 Descending Houston Center
Fri 04:34:02 PM 29.9928 -95.4008 89° East 157 181 900 -689 Descending Houston Center
Fri 04:34:21 PM 29.9931 -95.3881 89° East 125 144 700 -387 Descending Houston Center
Fri 04:35:04 PM 29.9944 -95.3625 86° East 147 169 500 -279 Descending Houston Center

Login

Don't have an account? Register now (free) for customized features, flight alerts, and more!